Time;durP1;ratioP1;P1;durP2;ratioP2;P2;SDS_P1;SDS_P2;PMS_P1;PMS_P2;Temp;Humidity;BMP_temperature;BMP_pressure;BME280_temperature;BME280_humidity;BME280_pressure;Samples;Min_cycle;Max_cycle;Signal;HPM_P1;HPM_P2
2024/02/11 00:00:28;;;;;;;0.82;0.82;;;;;;;10.53;75.96;96302.63;5024739;28;20572;-62
2024/02/11 00:02:56;;;;;;;0.80;0.80;;;;;;;10.49;75.56;96323.97;5024881;28;20055;-63
2024/02/11 00:05:26;;;;;;;0.80;0.80;;;;;;;10.17;76.51;96288.97;5024498;28;20053;-62
2024/02/11 00:07:53;;;;;;;0.80;0.80;;;;;;;9.70;77.89;96248.31;5025035;28;20099;-68
2024/02/11 00:10:20;;;;;;;0.75;0.75;;;;;;;10.14;78.40;96326.53;5024539;28;20500;-62
2024/02/11 00:12:47;;;;;;;0.70;0.70;;;;;;;10.14;78.77;96312.69;5006130;28;20067;-64
2024/02/11 00:15:14;;;;;;;0.70;0.70;;;;;;;8.13;78.78;96038.59;5024590;28;20492;-63
2024/02/11 00:17:43;;;;;;;0.80;0.80;;;;;;;9.76;79.39;96307.63;5006319;28;20518;-67
2024/02/11 00:20:10;;;;;;;0.80;0.80;;;;;;;9.77;80.40;96363.72;5024026;28;20491;-62
2024/02/11 00:22:38;;;;;;;0.80;0.80;;;;;;;9.91;80.05;96386.75;5024430;28;20068;-62
2024/02/11 00:25:09;;;;;;;0.73;0.73;;;;;;;9.84;80.97;96383.16;5024378;28;20068;-68
2024/02/11 00:27:42;;;;;;;0.70;0.70;;;;;;;9.31;81.11;96269.28;5006410;28;20150;-62
2024/02/11 00:30:10;;;;;;;0.70;0.70;;;;;;;9.20;81.66;96290.50;5006420;28;20439;-68
2024/02/11 00:32:37;;;;;;;0.80;0.80;;;;;;;9.40;83.38;96344.41;5023841;28;20132;-69
2024/02/11 00:35:05;;;;;;;0.80;0.80;;;;;;;8.83;82.78;96248.31;5006394;28;20050;-62
2024/02/11 00:37:32;;;;;;;0.77;0.77;;;;;;;9.49;82.65;96342.13;5024360;28;20069;-68
2024/02/11 00:39:58;;;;;;;0.70;0.70;;;;;;;9.09;84.66;96317.22;5024009;28;20490;-62
2024/02/11 00:42:27;;;;;;;0.60;0.60;;;;;;;9.26;84.76;96333.22;5024129;28;20129;-62
2024/02/11 00:44:55;;;;;;;0.70;0.70;;;;;;;9.02;83.35;96267.44;4826593;28;5001840;-68
2024/02/11 00:47:23;;;;;;;0.70;0.70;;;;;;;9.36;83.04;96321.47;5023739;28;20092;-68
2024/02/11 00:49:50;;;;;;;0.70;0.70;;;;;;;8.80;83.76;96254.59;5023224;28;20524;-68
2024/02/11 00:52:17;;;;;;;0.80;0.80;;;;;;;8.06;85.42;96186.66;5023750;28;20049;-68
2024/02/11 00:54:44;;;;;;;0.70;0.70;;;;;;;9.07;86.86;96314.84;5023619;28;20053;-62
2024/02/11 00:57:11;;;;;;;0.70;0.70;;;;;;;9.20;86.40;96309.84;5006269;28;20053;-62
2024/02/11 00:59:41;;;;;;;0.70;0.70;;;;;;;9.30;86.57;96314.69;5023760;28;20064;-68
2024/02/11 01:02:09;;;;;;;0.70;0.70;;;;;;;9.17;86.89;96307.84;5024122;28;20111;-68
2024/02/11 01:04:38;;;;;;;0.70;0.70;;;;;;;9.33;86.38;96310.38;5006272;28;20136;-62
2024/02/11 01:07:06;;;;;;;0.70;0.70;;;;;;;9.56;85.71;96325.63;5023709;28;20578;-63
2024/02/11 01:09:34;;;;;;;0.80;0.80;;;;;;;9.66;85.55;96305.56;5023958;28;20127;-62
2024/02/11 01:12:01;;;;;;;0.70;0.70;;;;;;;9.69;85.02;96296.50;5024225;28;20061;-67
2024/02/11 01:14:31;;;;;;;0.80;0.80;;;;;;;9.75;83.58;96294.97;5024169;28;20053;-61
2024/02/11 01:16:58;;;;;;;0.80;0.80;;;;;;;9.64;83.53;96294.06;5006138;28;20056;-62
2024/02/11 01:19:25;;;;;;;0.77;0.77;;;;;;;9.65;83.64;96284.63;5022315;28;20614;-68
2024/02/11 01:21:53;;;;;;;0.70;0.70;;;;;;;9.59;84.59;96291.69;5005959;28;20057;-62
2024/02/11 01:24:21;;;;;;;0.75;0.75;;;;;;;9.75;84.14;96294.19;5027341;28;20065;-62
2024/02/11 01:26:48;;;;;;;0.70;0.70;;;;;;;9.84;83.32;96305.69;5027756;28;20452;-62
2024/02/11 01:29:17;;;;;;;0.80;0.80;;;;;;;9.96;82.81;96308.16;5027759;28;20172;-62
2024/02/11 01:31:46;;;;;;;0.80;0.80;;;;;;;9.99;83.03;96302.66;5010014;28;20063;-68
2024/02/11 01:34:15;;;;;;;0.70;0.70;;;;;;;9.93;82.76;96312.50;5027678;28;20060;-61
2024/02/11 01:36:45;;;;;;;0.70;0.70;;;;;;;9.95;83.07;96307.38;5027229;28;20054;-68
2024/02/11 01:39:14;;;;;;;0.70;0.70;;;;;;;10.01;82.98;96296.72;5009404;28;20052;-62
2024/02/11 01:41:41;;;;;;;0.80;0.80;;;;;;;10.25;81.83;96285.88;5027527;28;20083;-61
2024/02/11 01:44:09;;;;;;;0.90;0.90;;;;;;;10.14;80.82;96257.34;5027644;28;20964;-62
2024/02/11 01:46:38;;;;;;;0.80;0.80;;;;;;;10.09;81.13;96285.38;5009672;28;20053;-67
2024/02/11 01:49:05;;;;;;;0.80;0.80;;;;;;;10.02;80.93;96254.06;5026917;28;20057;-68
2024/02/11 01:51:35;;;;;;;0.80;0.80;;;;;;;10.01;80.68;96258.81;5027319;28;20134;-67
2024/02/11 01:54:04;;;;;;;0.80;0.80;;;;;;;10.05;81.18;96265.13;5027327;28;20052;-61
2024/02/11 01:56:32;;;;;;;0.80;0.80;;;;;;;9.55;81.66;96221.72;5009996;28;20050;-62
2024/02/11 01:59:00;;;;;;;0.80;0.80;;;;;;;9.88;81.92;96271.34;5027500;28;20075;-62
2024/02/11 02:01:27;;;;;;;0.80;0.80;;;;;;;9.73;82.13;96258.63;5026830;28;20053;-67
2024/02/11 02:03:55;;;;;;;0.80;0.80;;;;;;;9.81;82.60;96263.03;5026953;28;20574;-62
2024/02/11 02:06:22;;;;;;;0.80;0.80;;;;;;;9.63;83.12;96248.25;5026796;28;20053;-67
2024/02/11 02:08:50;;;;;;;0.70;0.70;;;;;;;9.75;82.68;96239.66;5027018;28;20102;-67
2024/02/11 02:11:17;;;;;;;0.80;0.80;;;;;;;9.33;82.90;96184.03;5026545;28;20042;-68
2024/02/11 02:13:44;;;;;;;0.80;0.80;;;;;;;9.85;82.45;96238.94;5025573;28;20127;-67
2024/02/11 02:16:11;;;;;;;0.80;0.80;;;;;;;9.79;82.66;96228.63;5026731;28;20045;-61
2024/02/11 02:18:38;;;;;;;0.80;0.80;;;;;;;9.81;82.51;96232.59;5026659;28;20057;-62
2024/02/11 02:21:06;;;;;;;0.70;0.70;;;;;;;9.69;82.73;96224.59;5026592;28;20095;-61
2024/02/11 02:23:33;;;;;;;0.70;0.70;;;;;;;9.43;82.27;96183.34;5008853;28;20049;-61
2024/02/11 02:26:07;;;;;;;0.80;0.80;;;;;;;9.50;81.69;96171.56;5008768;28;20055;-67
2024/02/11 02:28:35;;;;;;;0.80;0.80;;;;;;;9.90;81.73;96263.47;5008880;28;20627;-62
2024/02/11 02:31:05;;;;;;;0.80;0.80;;;;;;;9.91;81.62;96245.69;5008553;28;20049;-68
2024/02/11 02:33:36;;;;;;;0.70;0.70;;;;;;;9.87;81.51;96236.59;5026192;28;20049;-61
2024/02/11 02:36:04;;;;;;;0.77;0.77;;;;;;;9.89;82.07;96267.44;5025641;28;20534;-61
2024/02/11 02:38:32;;;;;;;0.80;0.80;;;;;;;9.65;82.41;96245.09;5026411;28;20057;-62
2024/02/11 02:41:00;;;;;;;0.80;0.80;;;;;;;9.45;82.72;96225.22;5008782;28;20507;-67
2024/02/11 02:43:28;;;;;;;0.80;0.80;;;;;;;9.71;82.48;96263.72;5025961;28;20108;-61
2024/02/11 02:45:54;;;;;;;0.80;0.80;;;;;;;9.75;82.66;96272.84;5026025;28;20045;-67
2024/02/11 02:48:22;;;;;;;0.77;0.77;;;;;;;9.79;81.82;96265.38;5025971;28;20057;-61
2024/02/11 02:50:49;;;;;;;0.80;0.80;;;;;;;9.84;81.61;96267.78;5008363;28;20053;-63
2024/02/11 02:53:16;;;;;;;0.80;0.80;;;;;;;9.79;81.64;96268.13;5008396;28;20488;-67
2024/02/11 02:55:43;;;;;;;0.70;0.70;;;;;;;9.81;81.54;96274.09;5025501;28;20052;-61
2024/02/11 02:58:13;;;;;;;0.80;0.80;;;;;;;8.80;81.64;96163.47;5008313;28;20049;-67
2024/02/11 03:00:42;;;;;;;0.80;0.80;;;;;;;9.78;81.42;96261.03;5008300;28;20124;-67
2024/02/11 03:03:09;;;;;;;0.80;0.80;;;;;;;9.84;80.52;96253.94;5008046;28;20081;-63
2024/02/11 03:05:40;;;;;;;0.80;0.80;;;;;;;9.82;80.36;96252.72;5025376;28;20057;-68
2024/02/11 03:08:08;;;;;;;0.80;0.80;;;;;;;9.44;80.42;96190.44;5026005;28;20162;-68
2024/02/11 03:10:35;;;;;;;0.75;0.75;;;;;;;9.63;80.77;96220.59;5025204;28;20443;-66
2024/02/11 03:13:02;;;;;;;0.80;0.80;;;;;;;9.37;80.85;96195.94;5025784;28;20049;-68
2024/02/11 03:15:30;;;;;;;0.73;0.73;;;;;;;8.95;80.88;96132.03;5025863;28;20049;-70
2024/02/11 03:17:58;;;;;;;0.80;0.80;;;;;;;9.32;80.71;96192.72;5025609;28;20133;-63
2024/02/11 03:20:27;;;;;;;0.70;0.70;;;;;;;9.76;80.36;96241.25;5025874;28;20096;-68
2024/02/11 03:22:54;;;;;;;0.80;0.80;;;;;;;9.56;80.78;96215.03;5025870;28;20057;-61
2024/02/11 03:25:21;;;;;;;0.70;0.70;;;;;;;9.70;80.88;96234.50;5007363;28;20104;-61
2024/02/11 03:27:52;;;;;;;0.80;0.80;;;;;;;9.77;80.35;96226.22;5025378;28;20061;-62
2024/02/11 03:30:22;;;;;;;0.77;0.77;;;;;;;9.81;79.94;96221.53;5025535;28;20084;-61
2024/02/11 03:32:50;;;;;;;0.70;0.70;;;;;;;9.79;80.23;96226.66;5007674;28;20595;-67
2024/02/11 03:35:19;;;;;;;0.80;0.80;;;;;;;9.72;79.39;96207.22;5024985;28;20064;-61
2024/02/11 03:37:46;;;;;;;0.80;0.80;;;;;;;9.86;79.25;96217.59;5024078;28;20054;-62
2024/02/11 03:40:16;;;;;;;0.70;0.70;;;;;;;9.64;78.97;96200.06;5025090;28;20581;-67
2024/02/11 03:42:44;;;;;;;0.70;0.70;;;;;;;9.69;79.64;96210.78;5025308;28;20073;-67
2024/02/11 03:45:11;;;;;;;0.80;0.80;;;;;;;9.28;80.25;96148.47;5025021;28;20064;-62
2024/02/11 03:47:39;;;;;;;0.75;0.75;;;;;;;9.62;80.44;96213.50;5007542;28;20112;-61
2024/02/11 03:50:14;;;;;;;0.77;0.77;;;;;;;9.55;81.11;96215.44;5025200;28;20540;-62
2024/02/11 03:52:42;;;;;;;0.70;0.70;;;;;;;9.47;82.02;96216.53;5025111;28;20088;-68
2024/02/11 03:55:10;;;;;;;0.70;0.70;;;;;;;6.98;83.64;95857.09;5006849;28;20435;-68
2024/02/11 03:57:38;;;;;;;0.75;0.75;;;;;;;9.10;83.93;96191.75;5007257;28;20049;-66
2024/02/11 04:00:28;;;;;;;0.70;0.70;;;;;;;7.17;82.88;95843.16;5024717;28;20064;-68
2024/02/11 04:02:54;;;;;;;0.70;0.70;;;;;;;8.90;83.74;96140.66;5025324;28;20050;-61
2024/02/11 04:05:24;;;;;;;0.70;0.70;;;;;;;9.38;83.75;96219.63;5007244;28;20480;-62
2024/02/11 04:07:53;;;;;;;0.70;0.70;;;;;;;9.06;86.14;96199.22;5024940;28;20499;-61
2024/02/11 04:10:23;;;;;;;0.73;0.73;;;;;;;9.25;85.03;96206.50;5024577;28;20083;-61
2024/02/11 04:12:54;;;;;;;0.80;0.80;;;;;;;9.36;84.83;96210.16;5024640;28;20056;-67
2024/02/11 04:15:22;;;;;;;0.70;0.70;;;;;;;9.30;84.37;96201.41;5024434;28;20045;-67
2024/02/11 04:17:51;;;;;;;0.70;0.70;;;;;;;8.92;85.22;96174.22;5024327;28;20068;-61
2024/02/11 04:20:31;;;;;;;0.73;0.73;;;;;;;8.52;84.77;96119.03;5006587;28;20064;-66
2024/02/11 04:23:00;;;;;;;0.80;0.80;;;;;;;8.90;84.40;96193.13;5024596;28;20049;-61
2024/02/11 04:25:34;;;;;;;0.70;0.70;;;;;;;8.68;84.09;96153.50;5006327;28;20055;-62
2024/02/11 04:28:09;;;;;;;0.75;0.75;;;;;;;9.35;84.26;96231.44;5006486;28;20115;-62
2024/02/11 04:30:38;;;;;;;0.80;0.80;;;;;;;9.06;84.36;96193.69;5006704;28;20085;-67
2024/02/11 04:33:06;;;;;;;0.70;0.70;;;;;;;9.04;84.07;96209.88;5006788;28;20054;-67
2024/02/11 04:35:35;;;;;;;0.70;0.70;;;;;;;9.17;84.89;96219.44;5024231;28;20045;-67
2024/02/11 04:38:12;;;;;;;0.70;0.70;;;;;;;8.98;85.16;96200.31;5024480;28;20060;-61
2024/02/11 04:40:41;;;;;;;0.70;0.70;;;;;;;8.95;85.53;96190.03;5023551;28;20492;-67
2024/02/11 04:43:09;;;;;;;0.77;0.77;;;;;;;8.79;85.02;96164.63;5024293;28;20053;-61
2024/02/11 04:45:37;;;;;;;0.70;0.70;;;;;;;8.89;84.34;96147.38;4992077;28;20068;-67
2024/02/11 04:48:05;;;;;;;0.70;0.70;;;;;;;9.12;84.44;96195.72;5012140;28;20609;-61
2024/02/11 04:50:34;;;;;;;0.70;0.70;;;;;;;9.07;84.98;96198.06;5005419;28;20057;-68
2024/02/11 04:53:03;;;;;;;0.70;0.70;;;;;;;8.88;85.34;96167.88;5006412;28;20056;-62
2024/02/11 04:55:40;;;;;;;0.70;0.70;;;;;;;9.04;85.55;96183.00;5023704;28;20057;-61
2024/02/11 04:58:14;;;;;;;0.70;0.70;;;;;;;9.05;85.91;96189.34;5023860;28;20056;-67
2024/02/11 05:00:42;;;;;;;0.80;0.80;;;;;;;8.99;85.32;96262.69;5006042;28;20053;-68
2024/02/11 05:03:11;;;;;;;0.70;0.70;;;;;;;8.74;86.61;96167.75;5006379;28;20061;-61
2024/02/11 05:05:41;;;;;;;0.70;0.70;;;;;;;9.03;85.87;96191.69;5005806;28;20057;-67
2024/02/11 05:08:09;;;;;;;0.70;0.70;;;;;;;9.04;86.27;96176.72;5006556;28;20096;-67
2024/02/11 05:10:39;;;;;;;0.80;0.80;;;;;;;8.80;85.75;96127.56;5023336;28;20885;-70
2024/02/11 05:13:07;;;;;;;0.80;0.80;;;;;;;9.10;85.24;96164.91;5024045;28;20049;-62
2024/02/11 05:15:37;;;;;;;0.70;0.70;;;;;;;9.19;85.56;96183.94;5023733;28;20049;-66
2024/02/11 05:18:05;;;;;;;0.80;0.80;;;;;;;9.38;83.97;96183.69;5024080;28;20049;-68
2024/02/11 05:20:32;;;;;;;0.70;0.70;;;;;;;9.04;86.12;96182.25;5005979;28;20617;-62
2024/02/11 05:23:00;;;;;;;0.77;0.77;;;;;;;9.15;85.35;96188.66;5023938;28;20050;-62
2024/02/11 05:25:27;;;;;;;0.70;0.70;;;;;;;8.99;85.60;96179.81;5023362;28;20049;-68
2024/02/11 05:28:00;;;;;;;0.70;0.70;;;;;;;8.72;85.18;96131.44;5006193;28;20060;-62
2024/02/11 05:30:29;;;;;;;0.70;0.70;;;;;;;8.71;84.59;96113.31;5005786;28;20058;-68
2024/02/11 05:32:57;;;;;;;0.70;0.70;;;;;;;9.31;84.33;96202.19;5023272;28;20050;-62
2024/02/11 05:35:25;;;;;;;0.80;0.80;;;;;;;9.05;84.74;96161.72;5005773;28;20046;-67
2024/02/11 05:37:57;;;;;;;0.80;0.80;;;;;;;8.99;84.64;96163.25;5023409;28;20436;-68
2024/02/11 05:40:29;;;;;;;0.77;0.77;;;;;;;9.30;85.29;96217.97;5023065;28;20123;-68
2024/02/11 05:42:56;;;;;;;0.70;0.70;;;;;;;9.37;85.08;96212.53;5023107;28;20061;-67
2024/02/11 05:45:23;;;;;;;0.73;0.73;;;;;;;9.44;84.64;96218.09;5005326;28;20367;-62
2024/02/11 05:47:51;;;;;;;0.70;0.70;;;;;;;9.41;84.56;96202.28;5005381;28;20619;-67
2024/02/11 05:50:20;;;;;;;0.70;0.70;;;;;;;8.92;84.23;96128.09;5022904;28;20089;-62
2024/02/11 05:52:47;;;;;;;0.80;0.80;;;;;;;9.50;83.85;96241.44;5023719;28;20693;-68
2024/02/11 05:55:18;;;;;;;0.80;0.80;;;;;;;9.40;83.43;96211.75;5023373;28;20050;-68
2024/02/11 05:57:47;;;;;;;0.70;0.70;;;;;;;8.96;85.18;96169.53;5005983;28;20049;-68
2024/02/11 06:00:18;;;;;;;0.75;0.75;;;;;;;9.35;84.97;96198.28;5023230;28;20068;-63
2024/02/11 06:02:46;;;;;;;0.70;0.70;;;;;;;9.13;83.93;96174.41;5023897;28;20057;-64
2024/02/11 06:05:14;;;;;;;0.80;0.80;;;;;;;9.36;83.57;96177.75;5023127;28;20129;-63
2024/02/11 06:07:46;;;;;;;0.80;0.80;;;;;;;9.56;83.08;96215.03;5023435;28;20143;-63
2024/02/11 06:10:13;;;;;;;0.80;0.80;;;;;;;9.79;81.73;96225.84;5006866;28;20542;-69
2024/02/11 06:12:42;;;;;;;0.80;0.80;;;;;;;7.02;81.79;95805.59;5025750;28;20053;-67
2024/02/11 06:15:10;;;;;;;0.80;0.80;;;;;;;9.46;82.11;96177.06;5008892;28;20055;-63
2024/02/11 06:17:38;;;;;;;0.80;0.80;;;;;;;8.95;83.79;96206.59;5030977;28;20063;-67
2024/02/11 06:20:06;;;;;;;0.73;0.73;;;;;;;9.02;86.21;96235.09;5046734;28;20087;-68
2024/02/11 06:22:35;;;;;;;0.70;0.70;;;;;;;8.65;87.05;96226.03;5046615;28;20057;-64
2024/02/11 06:25:03;;;;;;;0.70;0.70;;;;;;;8.65;88.93;96239.03;5028473;28;20409;-67
2024/02/11 06:27:32;;;;;;;0.70;0.70;;;;;;;8.73;87.67;96227.69;5046355;28;20056;-68
2024/02/11 06:29:59;;;;;;;0.70;0.70;;;;;;;8.91;87.67;96244.44;5028374;28;20072;-63
2024/02/11 06:32:26;;;;;;;0.73;0.73;;;;;;;8.92;85.72;96190.78;5046398;28;20064;-69
2024/02/11 06:34:54;;;;;;;0.70;0.70;;;;;;;9.45;84.19;96241.81;5028184;28;20138;-68
2024/02/11 06:37:21;;;;;;;0.70;0.70;;;;;;;9.58;83.88;96240.31;5046045;28;20172;-68
2024/02/11 06:39:48;;;;;;;0.70;0.70;;;;;;;9.73;83.41;96242.03;5046164;28;20521;-63
2024/02/11 06:42:15;;;;;;;0.70;0.70;;;;;;;9.90;82.96;96219.22;5031144;28;20558;-69
2024/02/11 06:44:42;;;;;;;0.77;0.77;;;;;;;10.15;80.21;96245.06;5015994;28;20049;-61
2024/02/11 06:47:09;;;;;;;0.80;0.80;;;;;;;10.25;80.28;96251.84;5046065;28;20148;-62
2024/02/11 06:49:38;;;;;;;0.88;0.88;;;;;;;10.38;79.28;96251.16;5045617;28;20155;-64
2024/02/11 06:52:09;;;;;;;0.80;0.80;;;;;;;9.68;78.47;96111.63;5046017;28;20586;-63
2024/02/11 06:54:40;;;;;;;0.80;0.80;;;;;;;10.88;77.19;96229.16;5045820;28;20515;-69
2024/02/11 06:57:06;;;;;;;0.80;0.80;;;;;;;10.73;76.59;96189.56;5045711;28;20057;-61
2024/02/11 06:59:33;;;;;;;0.85;0.85;;;;;;;11.19;76.96;96239.53;5046118;28;20051;-65
2024/02/11 07:02:00;;;;;;;0.90;0.90;;;;;;;11.29;76.73;96219.31;5046160;28;20084;-63
2024/02/11 07:04:32;;;;;;;0.88;0.88;;;;;;;11.12;74.54;96182.09;5045692;28;20466;-62
2024/02/11 07:07:02;;;;;;;0.85;0.85;;;;;;;11.65;74.41;96218.19;5027848;28;20155;-67
2024/02/11 07:09:29;;;;;;;1.00;1.00;;;;;;;11.87;72.94;96209.44;5027649;28;20270;-62
2024/02/11 07:11:59;;;;;;;1.00;1.00;;;;;;;12.07;72.11;96201.47;5027565;28;20064;-68
2024/02/11 07:14:26;;;;;;;0.90;0.90;;;;;;;11.70;73.89;96184.50;5044498;28;20053;-62
2024/02/11 07:16:58;;;;;;;0.90;0.90;;;;;;;12.19;72.60;96232.38;5025160;28;20636;-67
2024/02/11 07:19:25;;;;;;;0.90;0.90;;;;;;;12.17;72.29;96197.88;5025562;28;20045;-68
2024/02/11 07:21:52;;;;;;;0.93;0.93;;;;;;;12.25;72.39;96210.53;5022981;28;20503;-68
2024/02/11 07:24:21;;;;;;;0.90;0.90;;;;;;;12.00;71.97;96170.94;5023304;28;20516;-68
2024/02/11 07:26:47;;;;;;;1.05;1.05;;;;;;;11.76;72.05;96102.47;5023485;28;20052;-69
2024/02/11 07:29:16;;;;;;;1.00;1.00;;;;;;;12.87;71.04;96221.78;5023347;28;20053;-67
2024/02/11 07:31:43;;;;;;;1.05;1.05;;;;;;;13.22;70.19;96225.19;5023367;28;20085;-62
2024/02/11 07:34:10;;;;;;;1.00;1.00;;;;;;;13.47;69.35;96220.25;5023168;28;20041;-62
2024/02/11 07:36:40;;;;;;;1.00;1.00;;;;;;;12.87;69.45;96160.66;5006945;28;20119;-67
2024/02/11 07:39:06;;;;;;;1.00;1.00;;;;;;;13.00;70.63;96220.97;5025281;28;20056;-62
2024/02/11 07:41:33;;;;;;;1.00;1.00;;;;;;;12.63;72.63;96189.38;5006916;28;20061;-64
2024/02/11 07:44:01;;;;;;;1.10;1.10;;;;;;;12.48;72.88;96154.50;5025064;28;20053;-62
2024/02/11 07:46:29;;;;;;;1.00;1.00;;;;;;;13.09;72.56;96212.97;5024886;28;20053;-67
2024/02/11 07:49:03;;;;;;;1.10;1.10;;;;;;;10.27;72.62;95785.34;5007237;28;20061;-62
2024/02/11 07:51:30;;;;;;;1.10;1.10;;;;;;;13.45;71.33;96219.09;5025098;28;20045;-63
2024/02/11 07:53:57;;;;;;;1.20;1.20;;;;;;;13.46;70.05;96165.81;5024996;28;20060;-63
2024/02/11 07:56:25;;;;;;;1.20;1.20;;;;;;;14.02;69.14;96219.41;5024564;28;20144;-62
2024/02/11 07:58:52;;;;;;;1.00;1.00;;;;;;;14.26;68.60;96218.34;5024923;28;20123;-62
2024/02/11 08:01:19;;;;;;;1.20;1.20;;;;;;;14.48;66.97;96209.34;5024352;28;20114;-69
2024/02/11 08:03:47;;;;;;;1.20;1.20;;;;;;;14.69;66.19;96214.69;5006773;28;20089;-68
2024/02/11 08:06:14;;;;;;;1.35;1.35;;;;;;;14.60;64.88;96194.09;5006990;28;20111;-63
2024/02/11 08:08:41;;;;;;;1.40;1.40;;;;;;;14.88;65.32;96222.41;5024336;28;20068;-64
2024/02/11 08:11:08;;;;;;;1.45;1.45;;;;;;;15.17;64.25;96225.63;5024362;28;20085;-68
2024/02/11 08:13:35;;;;;;;1.40;1.40;;;;;;;14.88;64.13;96210.47;5024091;28;20179;-68
2024/02/11 08:16:03;;;;;;;1.20;1.20;;;;;;;14.83;65.60;96220.09;5006453;28;20053;-63
2024/02/11 08:18:30;;;;;;;1.30;1.30;;;;;;;15.08;64.71;96197.44;5024162;28;20061;-62
2024/02/11 08:20:58;;;;;;;1.20;1.20;;;;;;;15.59;64.09;96230.59;5024122;28;20045;-68
2024/02/11 08:23:24;;;;;;;1.50;1.50;;;;;;;15.66;62.17;96226.91;5024608;28;20075;-63
2024/02/11 08:25:51;;;;;;;1.23;1.23;;;;;;;15.05;64.39;96215.00;5023985;28;20088;-62
2024/02/11 08:28:18;;;;;;;1.30;1.30;;;;;;;15.57;62.75;96213.47;5024472;28;20072;-68
2024/02/11 08:30:45;;;;;;;1.60;1.60;;;;;;;15.18;63.23;96174.97;5024223;28;20053;-63
2024/02/11 08:33:12;;;;;;;1.40;1.40;;;;;;;15.63;62.95;96250.88;5005512;28;20057;-62
2024/02/11 08:35:38;;;;;;;1.50;1.50;;;;;;;15.85;62.38;96218.59;5024063;28;20066;-68
2024/02/11 08:38:05;;;;;;;1.40;1.40;;;;;;;16.08;61.32;96206.63;5024065;28;20090;-68
2024/02/11 08:40:32;;;;;;;1.50;1.50;;;;;;;15.93;61.89;96192.09;5024486;28;20251;-62
2024/02/11 08:43:01;;;;;;;1.63;1.63;;;;;;;16.10;61.40;96179.84;5024097;28;20077;-69
2024/02/11 08:45:28;;;;;;;1.48;1.48;;;;;;;16.34;60.90;96200.94;5024171;28;20060;-63
2024/02/11 08:47:56;;;;;;;1.60;1.60;;;;;;;16.42;59.28;96185.59;5023970;28;20053;-68
2024/02/11 08:50:25;;;;;;;1.65;1.65;;;;;;;16.51;59.32;96176.69;5023280;28;20053;-68
2024/02/11 08:52:55;;;;;;;1.52;1.52;;;;;;;16.63;58.08;96174.03;5023963;28;20128;-61
2024/02/11 08:55:22;;;;;;;1.50;1.50;;;;;;;16.39;58.48;96096.25;5006183;28;20045;-69
2024/02/11 08:57:48;;;;;;;1.50;1.50;;;;;;;16.63;59.63;96161.28;5023965;28;20075;-68
2024/02/11 09:00:16;;;;;;;1.50;1.50;;;;;;;16.69;58.76;96159.56;5024065;28;20576;-62
2024/02/11 09:02:44;;;;;;;1.63;1.63;;;;;;;16.95;58.80;96161.38;5024149;28;20050;-62
2024/02/11 09:05:11;;;;;;;1.60;1.60;;;;;;;16.71;55.95;96179.50;5023480;28;20051;-63
2024/02/11 09:07:38;;;;;;;1.50;1.50;;;;;;;16.19;55.48;96171.69;5005925;28;20057;-63
2024/02/11 09:10:09;;;;;;;1.50;1.50;;;;;;;16.25;55.60;96186.75;5023993;28;20459;-70
2024/02/11 09:12:36;;;;;;;1.50;1.50;;;;;;;16.26;56.06;96181.94;5023971;28;20041;-62
2024/02/11 09:15:03;;;;;;;1.58;1.58;;;;;;;16.28;55.48;96174.69;5024088;28;20571;-66
2024/02/11 09:17:32;;;;;;;1.30;1.30;;;;;;;16.39;55.22;96171.72;5023963;28;20061;-62
2024/02/11 09:20:00;;;;;;;1.50;1.50;;;;;;;16.46;54.91;96113.69;5023793;28;20053;-67
2024/02/11 09:22:27;;;;;;;1.30;1.30;;;;;;;16.74;54.29;96167.44;5006024;28;20127;-68
2024/02/11 09:24:54;;;;;;;1.60;1.60;;;;;;;16.90;53.74;96175.88;5023797;28;20054;-62
2024/02/11 09:27:21;;;;;;;1.38;1.38;;;;;;;17.08;53.05;96181.88;5023617;28;20061;-68
2024/02/11 09:29:48;;;;;;;1.67;1.67;;;;;;;16.98;52.56;96160.50;5023790;28;20049;-65
2024/02/11 09:32:16;;;;;;;1.60;1.60;;;;;;;17.03;52.40;96179.59;5023169;28;20060;-68
2024/02/11 09:34:43;;;;;;;1.60;1.60;;;;;;;15.23;52.48;95886.34;5005843;28;20052;-63
2024/02/11 09:37:10;;;;;;;1.75;1.75;;;;;;;16.86;52.45;96175.16;5023138;28;20057;-62
2024/02/11 09:39:37;;;;;;;1.60;1.60;;;;;;;16.87;52.02;96159.94;5021895;28;20057;-67
2024/02/11 09:42:05;;;;;;;1.77;1.77;;;;;;;17.09;51.80;96161.06;5023468;28;20460;-62
2024/02/11 09:44:35;;;;;;;1.50;1.50;;;;;;;16.38;51.26;96056.31;5025665;28;20167;-67
2024/02/11 09:47:03;;;;;;;1.65;1.65;;;;;;;17.24;51.16;96167.91;5027184;28;20124;-68
2024/02/11 09:49:32;;;;;;;1.50;1.50;;;;;;;17.24;50.75;96196.72;5026436;28;20520;-68
2024/02/11 09:52:00;;;;;;;1.63;1.63;;;;;;;17.22;51.02;96164.75;5009266;28;20061;-68
2024/02/11 09:54:32;;;;;;;1.50;1.50;;;;;;;17.15;50.80;96148.91;5027151;28;20059;-68
2024/02/11 09:56:59;;;;;;;1.60;1.60;;;;;;;17.25;50.35;96158.28;5027025;28;20057;-68
2024/02/11 09:59:26;;;;;;;1.67;1.67;;;;;;;17.21;50.34;96152.78;5026551;28;20053;-62
2024/02/11 10:01:56;;;;;;;1.63;1.63;;;;;;;17.09;50.75;96150.66;5026568;28;20049;-64
2024/02/11 10:04:30;;;;;;;1.73;1.73;;;;;;;17.07;50.48;96144.69;5027005;28;20059;-62
2024/02/11 10:06:59;;;;;;;1.60;1.60;;;;;;;17.00;50.20;96130.88;5026929;28;20451;-64
2024/02/11 10:09:26;;;;;;;1.50;1.50;;;;;;;17.10;50.07;96137.47;5026910;28;20515;-68
2024/02/11 10:11:54;;;;;;;1.70;1.70;;;;;;;17.17;50.21;96140.06;5009383;28;20148;-68
2024/02/11 10:14:25;;;;;;;1.40;1.40;;;;;;;16.83;50.00;96108.91;5026513;28;20072;-67
2024/02/11 10:16:58;;;;;;;1.70;1.70;;;;;;;16.99;50.59;96134.13;5026771;28;20104;-64
2024/02/11 10:19:26;;;;;;;1.65;1.65;;;;;;;17.23;50.22;96127.16;5025772;28;20476;-62
2024/02/11 10:21:54;;;;;;;1.60;1.60;;;;;;;17.40;49.81;96114.75;5025726;28;20068;-68
2024/02/11 10:24:30;;;;;;;1.58;1.58;;;;;;;17.55;49.74;96121.59;5009694;28;20484;-68
2024/02/11 10:26:58;;;;;;;1.60;1.60;;;;;;;17.65;49.29;96123.34;5026417;28;20057;-63
2024/02/11 10:29:26;;;;;;;1.90;1.90;;;;;;;17.45;49.42;96075.06;5025899;28;20049;-70
2024/02/11 10:31:53;;;;;;;1.70;1.70;;;;;;;17.80;48.99;96116.94;5026600;28;20061;-71
2024/02/11 10:34:20;;;;;;;1.90;1.90;;;;;;;17.28;49.09;96000.66;5008386;28;20084;-70
2024/02/11 10:36:47;;;;;;;1.80;1.80;;;;;;;17.92;48.47;96085.38;5008359;28;20099;-70
2024/02/11 10:39:15;;;;;;;1.63;1.63;;;;;;;18.11;47.89;96044.44;5026120;28;20080;-70
2024/02/11 10:41:42;;;;;;;1.73;1.73;;;;;;;18.24;47.69;96050.09;5026152;28;20507;-62
2024/02/11 10:44:09;;;;;;;1.60;1.60;;;;;;;18.32;48.08;96082.31;5008237;28;20535;-71
2024/02/11 10:46:36;;;;;;;1.80;1.80;;;;;;;18.55;47.59;96088.44;5008402;28;20848;-71
2024/02/11 10:49:03;;;;;;;1.83;1.83;;;;;;;18.41;48.05;96088.88;5025633;28;20523;-62
2024/02/11 10:51:38;;;;;;;1.77;1.77;;;;;;;18.35;48.42;96096.22;5008787;28;20065;-70
2024/02/11 10:54:06;;;;;;;1.60;1.60;;;;;;;18.44;48.03;96082.38;5008399;28;20053;-69
2024/02/11 10:56:35;;;;;;;1.80;1.80;;;;;;;18.43;47.92;96077.97;5007614;28;20056;-71
2024/02/11 10:59:08;;;;;;;1.50;1.50;;;;;;;18.33;48.38;96076.25;5026039;28;20053;-61
2024/02/11 11:01:39;;;;;;;1.50;1.50;;;;;;;18.27;48.63;96078.03;5025711;28;20057;-61
2024/02/11 11:04:13;;;;;;;1.90;1.90;;;;;;;18.35;48.32;96067.41;5007852;28;20053;-62
2024/02/11 11:06:41;;;;;;;1.70;1.70;;;;;;;18.26;48.26;96056.06;5025602;28;20160;-69
2024/02/11 11:09:09;;;;;;;1.77;1.77;;;;;;;17.96;48.57;96060.06;5025983;28;20060;-72
2024/02/11 11:11:36;;;;;;;1.80;1.80;;;;;;;17.96;48.95;96057.28;5007635;28;20063;-70
2024/02/11 11:14:09;;;;;;;1.63;1.63;;;;;;;17.92;49.16;96056.59;5025931;28;20053;-70
2024/02/11 11:16:42;;;;;;;1.70;1.70;;;;;;;17.84;49.22;96049.59;5025723;28;20080;-62
2024/02/11 11:19:14;;;;;;;1.70;1.70;;;;;;;18.02;49.01;96055.50;5025091;28;20053;-70
2024/02/11 11:21:51;;;;;;;1.90;1.90;;;;;;;17.76;49.06;96049.03;5007724;28;20583;-62
2024/02/11 11:24:18;;;;;;;1.73;1.73;;;;;;;17.84;49.04;96044.00;5007716;28;20064;-72
2024/02/11 11:26:50;;;;;;;1.55;1.55;;;;;;;17.82;48.85;96030.44;5007856;28;20053;-62
2024/02/11 11:29:17;;;;;;;1.60;1.60;;;;;;;17.46;49.43;96012.22;5007597;28;20148;-71
2024/02/11 11:31:48;;;;;;;1.60;1.60;;;;;;;17.77;49.41;96039.38;5025149;28;20123;-69
2024/02/11 11:34:15;;;;;;;1.90;1.90;;;;;;;17.78;49.51;96051.38;5007023;28;20397;-70
2024/02/11 11:36:42;;;;;;;1.63;1.63;;;;;;;17.59;49.29;96055.09;5007436;28;20432;-71
2024/02/11 11:39:13;;;;;;;1.70;1.70;;;;;;;17.59;49.92;96039.06;5025226;28;20448;-61
2024/02/11 11:41:40;;;;;;;1.90;1.90;;;;;;;17.48;50.01;96015.38;5007336;28;20439;-60
2024/02/11 11:44:07;;;;;;;1.70;1.70;;;;;;;17.37;49.76;95989.66;5025235;28;20119;-62